sensor_id;sensor_type;location;lat;lon;timestamp;P1;durP1;ratioP1;P2;durP2;ratioP2
63900;SDS011;50538;53.482;10.294;2023-04-06T00:02:02;1.27;;;0.60;;
63900;SDS011;50538;53.482;10.294;2023-04-06T00:12:04;1.92;;;0.88;;
63900;SDS011;50538;53.482;10.294;2023-04-06T00:22:05;1.58;;;0.55;;
63900;SDS011;50538;53.482;10.294;2023-04-06T00:32:06;0.77;;;0.52;;
63900;SDS011;50538;53.482;10.294;2023-04-06T00:42:11;4.88;;;1.13;;
63900;SDS011;50538;53.482;10.294;2023-04-06T00:52:14;1.30;;;0.70;;
63900;SDS011;50538;53.482;10.294;2023-04-06T01:02:37;1.90;;;0.80;;
63900;SDS011;50538;53.482;10.294;2023-04-06T01:12:38;2.80;;;1.08;;
63900;SDS011;50538;53.482;10.294;2023-04-06T01:22:39;2.72;;;0.80;;
63900;SDS011;50538;53.482;10.294;2023-04-06T01:32:40;1.60;;;1.02;;
63900;SDS011;50538;53.482;10.294;2023-04-06T01:42:45;1.50;;;0.98;;
63900;SDS011;50538;53.482;10.294;2023-04-06T01:52:46;1.17;;;0.77;;
63900;SDS011;50538;53.482;10.294;2023-04-06T02:02:47;7.20;;;0.60;;
63900;SDS011;50538;53.482;10.294;2023-04-06T02:12:48;1.60;;;0.82;;
63900;SDS011;50538;53.482;10.294;2023-04-06T02:22:49;1.35;;;0.77;;
63900;SDS011;50538;53.482;10.294;2023-04-06T02:32:59;1.38;;;0.60;;
63900;SDS011;50538;53.482;10.294;2023-04-06T02:43:19;0.68;;;0.55;;
63900;SDS011;50538;53.482;10.294;2023-04-06T02:53:20;2.58;;;0.70;;
63900;SDS011;50538;53.482;10.294;2023-04-06T03:03:27;1.30;;;0.52;;
63900;SDS011;50538;53.482;10.294;2023-04-06T03:13:53;1.73;;;1.20;;
63900;SDS011;50538;53.482;10.294;2023-04-06T03:24:23;1.58;;;0.77;;
63900;SDS011;50538;53.482;10.294;2023-04-06T03:34:24;2.17;;;0.83;;
63900;SDS011;50538;53.482;10.294;2023-04-06T03:44:58;1.20;;;0.95;;
63900;SDS011;50538;53.482;10.294;2023-04-06T03:55:01;2.95;;;0.77;;
63900;SDS011;50538;53.482;10.294;2023-04-06T04:05:20;1.65;;;0.75;;
63900;SDS011;50538;53.482;10.294;2023-04-06T04:15:25;1.63;;;0.57;;
63900;SDS011;50538;53.482;10.294;2023-04-06T04:25:25;2.53;;;1.05;;
63900;SDS011;50538;53.482;10.294;2023-04-06T04:35:26;1.63;;;0.80;;
63900;SDS011;50538;53.482;10.294;2023-04-06T04:45:37;0.88;;;0.52;;
63900;SDS011;50538;53.482;10.294;2023-04-06T04:55:38;2.40;;;0.70;;
63900;SDS011;50538;53.482;10.294;2023-04-06T05:05:39;1.08;;;0.57;;
63900;SDS011;50538;53.482;10.294;2023-04-06T05:15:40;0.97;;;0.53;;
63900;SDS011;50538;53.482;10.294;2023-04-06T05:25:54;1.15;;;0.63;;
63900;SDS011;50538;53.482;10.294;2023-04-06T05:36:01;3.97;;;0.80;;
63900;SDS011;50538;53.482;10.294;2023-04-06T05:46:03;1.20;;;0.70;;
63900;SDS011;50538;53.482;10.294;2023-04-06T05:56:12;1.48;;;0.55;;
63900;SDS011;50538;53.482;10.294;2023-04-06T06:06:13;2.38;;;1.23;;
63900;SDS011;50538;53.482;10.294;2023-04-06T06:16:22;2.33;;;0.90;;
63900;SDS011;50538;53.482;10.294;2023-04-06T06:26:23;4.53;;;1.38;;
63900;SDS011;50538;53.482;10.294;2023-04-06T06:36:26;8.05;;;2.55;;
63900;SDS011;50538;53.482;10.294;2023-04-06T06:46:26;4.57;;;1.83;;
63900;SDS011;50538;53.482;10.294;2023-04-06T06:56:27;3.40;;;1.77;;
63900;SDS011;50538;53.482;10.294;2023-04-06T07:06:27;5.70;;;1.83;;
63900;SDS011;50538;53.482;10.294;2023-04-06T07:16:28;4.80;;;1.60;;
63900;SDS011;50538;53.482;10.294;2023-04-06T07:26:28;4.50;;;1.65;;
63900;SDS011;50538;53.482;10.294;2023-04-06T07:36:29;6.13;;;2.03;;
63900;SDS011;50538;53.482;10.294;2023-04-06T07:46:29;3.83;;;1.77;;
63900;SDS011;50538;53.482;10.294;2023-04-06T07:56:30;10.95;;;2.90;;
63900;SDS011;50538;53.482;10.294;2023-04-06T08:06:31;5.20;;;2.13;;
63900;SDS011;50538;53.482;10.294;2023-04-06T08:16:31;4.32;;;1.65;;
63900;SDS011;50538;53.482;10.294;2023-04-06T08:26:31;6.05;;;1.92;;
63900;SDS011;50538;53.482;10.294;2023-04-06T08:36:32;7.20;;;2.30;;
63900;SDS011;50538;53.482;10.294;2023-04-06T08:46:32;5.00;;;1.77;;
63900;SDS011;50538;53.482;10.294;2023-04-06T08:56:33;3.53;;;1.53;;
63900;SDS011;50538;53.482;10.294;2023-04-06T09:06:38;5.20;;;2.13;;
63900;SDS011;50538;53.482;10.294;2023-04-06T09:16:44;4.80;;;2.20;;
63900;SDS011;50538;53.482;10.294;2023-04-06T09:26:45;4.82;;;1.83;;
63900;SDS011;50538;53.482;10.294;2023-04-06T09:36:47;7.22;;;2.83;;
63900;SDS011;50538;53.482;10.294;2023-04-06T09:46:47;3.65;;;1.40;;
63900;SDS011;50538;53.482;10.294;2023-04-06T09:56:52;4.63;;;1.60;;
63900;SDS011;50538;53.482;10.294;2023-04-06T10:06:57;5.90;;;2.13;;
63900;SDS011;50538;53.482;10.294;2023-04-06T10:16:59;5.53;;;2.15;;
63900;SDS011;50538;53.482;10.294;2023-04-06T10:27:07;4.45;;;1.85;;
63900;SDS011;50538;53.482;10.294;2023-04-06T10:37:14;4.65;;;1.92;;
63900;SDS011;50538;53.482;10.294;2023-04-06T10:47:15;5.83;;;2.33;;
63900;SDS011;50538;53.482;10.294;2023-04-06T10:57:27;3.83;;;2.17;;
63900;SDS011;50538;53.482;10.294;2023-04-06T11:07:29;6.90;;;2.80;;
63900;SDS011;50538;53.482;10.294;2023-04-06T11:17:33;6.43;;;2.72;;
63900;SDS011;50538;53.482;10.294;2023-04-06T11:27:38;6.68;;;2.88;;
63900;SDS011;50538;53.482;10.294;2023-04-06T11:37:39;7.73;;;2.93;;
63900;SDS011;50538;53.482;10.294;2023-04-06T11:47:39;6.50;;;3.10;;
63900;SDS011;50538;53.482;10.294;2023-04-06T11:57:40;9.47;;;2.50;;
63900;SDS011;50538;53.482;10.294;2023-04-06T12:07:42;9.88;;;3.58;;
63900;SDS011;50538;53.482;10.294;2023-04-06T12:17:42;8.82;;;3.22;;
63900;SDS011;50538;53.482;10.294;2023-04-06T12:27:43;7.57;;;3.67;;
63900;SDS011;50538;53.482;10.294;2023-04-06T12:37:43;9.30;;;3.75;;
63900;SDS011;50538;53.482;10.294;2023-04-06T12:47:44;7.70;;;3.25;;
63900;SDS011;50538;53.482;10.294;2023-04-06T12:57:46;7.97;;;2.95;;
63900;SDS011;50538;53.482;10.294;2023-04-06T13:07:47;7.57;;;2.35;;
63900;SDS011;50538;53.482;10.294;2023-04-06T13:17:47;7.22;;;3.42;;
63900;SDS011;50538;53.482;10.294;2023-04-06T13:27:48;6.22;;;3.03;;
63900;SDS011;50538;53.482;10.294;2023-04-06T13:37:48;7.55;;;3.20;;
63900;SDS011;50538;53.482;10.294;2023-04-06T13:47:51;8.73;;;3.28;;
63900;SDS011;50538;53.482;10.294;2023-04-06T13:57:52;9.63;;;3.80;;
63900;SDS011;50538;53.482;10.294;2023-04-06T14:07:52;8.65;;;3.42;;
63900;SDS011;50538;53.482;10.294;2023-04-06T14:17:55;7.90;;;3.50;;
63900;SDS011;50538;53.482;10.294;2023-04-06T14:27:58;6.95;;;3.28;;
63900;SDS011;50538;53.482;10.294;2023-04-06T14:37:59;6.35;;;3.17;;
63900;SDS011;50538;53.482;10.294;2023-04-06T14:48:01;5.63;;;2.92;;
63900;SDS011;50538;53.482;10.294;2023-04-06T14:58:02;7.03;;;3.20;;
63900;SDS011;50538;53.482;10.294;2023-04-06T15:08:04;10.18;;;3.70;;
63900;SDS011;50538;53.482;10.294;2023-04-06T15:18:05;7.80;;;3.20;;
63900;SDS011;50538;53.482;10.294;2023-04-06T15:28:06;8.65;;;3.70;;
63900;SDS011;50538;53.482;10.294;2023-04-06T15:38:07;6.53;;;3.20;;
63900;SDS011;50538;53.482;10.294;2023-04-06T15:48:08;8.43;;;3.53;;
63900;SDS011;50538;53.482;10.294;2023-04-06T15:58:12;7.20;;;3.50;;
63900;SDS011;50538;53.482;10.294;2023-04-06T16:08:14;5.07;;;2.90;;
63900;SDS011;50538;53.482;10.294;2023-04-06T16:18:19;6.47;;;3.13;;
63900;SDS011;50538;53.482;10.294;2023-04-06T16:28:20;9.07;;;3.20;;
63900;SDS011;50538;53.482;10.294;2023-04-06T16:38:25;7.57;;;3.10;;
63900;SDS011;50538;53.482;10.294;2023-04-06T16:48:33;6.07;;;3.05;;
63900;SDS011;50538;53.482;10.294;2023-04-06T16:58:42;6.28;;;2.95;;
63900;SDS011;50538;53.482;10.294;2023-04-06T17:08:46;5.85;;;2.85;;
63900;SDS011;50538;53.482;10.294;2023-04-06T17:18:47;7.40;;;2.92;;
63900;SDS011;50538;53.482;10.294;2023-04-06T17:28:50;7.93;;;2.28;;
63900;SDS011;50538;53.482;10.294;2023-04-06T17:38:51;6.70;;;2.85;;
63900;SDS011;50538;53.482;10.294;2023-04-06T17:48:53;8.90;;;4.25;;
63900;SDS011;50538;53.482;10.294;2023-04-06T17:58:57;6.65;;;2.78;;
63900;SDS011;50538;53.482;10.294;2023-04-06T18:08:58;7.05;;;3.03;;
63900;SDS011;50538;53.482;10.294;2023-04-06T18:18:59;8.65;;;3.75;;
63900;SDS011;50538;53.482;10.294;2023-04-06T18:29:00;11.13;;;4.60;;
63900;SDS011;50538;53.482;10.294;2023-04-06T18:39:01;31.75;;;10.98;;
63900;SDS011;50538;53.482;10.294;2023-04-06T18:49:02;38.65;;;13.65;;
63900;SDS011;50538;53.482;10.294;2023-04-06T18:59:03;12.15;;;4.57;;
63900;SDS011;50538;53.482;10.294;2023-04-06T19:09:04;6.25;;;2.88;;
63900;SDS011;50538;53.482;10.294;2023-04-06T19:19:04;7.57;;;3.35;;
63900;SDS011;50538;53.482;10.294;2023-04-06T19:29:05;9.63;;;3.63;;
63900;SDS011;50538;53.482;10.294;2023-04-06T19:39:05;7.28;;;3.20;;
63900;SDS011;50538;53.482;10.294;2023-04-06T19:49:05;8.95;;;2.90;;
63900;SDS011;50538;53.482;10.294;2023-04-06T19:59:06;11.25;;;4.20;;
63900;SDS011;50538;53.482;10.294;2023-04-06T20:09:06;7.55;;;3.63;;
63900;SDS011;50538;53.482;10.294;2023-04-06T20:19:07;6.85;;;3.15;;
63900;SDS011;50538;53.482;10.294;2023-04-06T20:29:07;9.70;;;4.00;;
63900;SDS011;50538;53.482;10.294;2023-04-06T20:39:08;8.20;;;3.40;;
63900;SDS011;50538;53.482;10.294;2023-04-06T20:49:08;8.40;;;3.75;;
63900;SDS011;50538;53.482;10.294;2023-04-06T20:59:08;16.00;;;4.70;;
63900;SDS011;50538;53.482;10.294;2023-04-06T21:09:09;8.13;;;3.92;;
63900;SDS011;50538;53.482;10.294;2023-04-06T21:19:09;9.77;;;4.07;;
63900;SDS011;50538;53.482;10.294;2023-04-06T21:29:10;8.02;;;3.53;;
63900;SDS011;50538;53.482;10.294;2023-04-06T21:39:11;6.90;;;2.88;;
63900;SDS011;50538;53.482;10.294;2023-04-06T21:49:11;9.43;;;3.75;;
63900;SDS011;50538;53.482;10.294;2023-04-06T21:59:12;6.97;;;2.95;;
63900;SDS011;50538;53.482;10.294;2023-04-06T22:09:12;9.63;;;3.22;;
63900;SDS011;50538;53.482;10.294;2023-04-06T22:19:12;7.45;;;3.17;;
63900;SDS011;50538;53.482;10.294;2023-04-06T22:29:13;9.35;;;3.25;;
63900;SDS011;50538;53.482;10.294;2023-04-06T22:39:13;8.50;;;3.20;;
63900;SDS011;50538;53.482;10.294;2023-04-06T22:49:13;12.23;;;3.55;;
63900;SDS011;50538;53.482;10.294;2023-04-06T22:59:14;10.35;;;3.42;;
63900;SDS011;50538;53.482;10.294;2023-04-06T23:09:14;6.60;;;2.53;;
63900;SDS011;50538;53.482;10.294;2023-04-06T23:19:14;6.97;;;2.65;;
63900;SDS011;50538;53.482;10.294;2023-04-06T23:29:15;5.68;;;3.08;;
63900;SDS011;50538;53.482;10.294;2023-04-06T23:39:15;6.00;;;2.80;;
63900;SDS011;50538;53.482;10.294;2023-04-06T23:49:16;6.25;;;2.97;;
63900;SDS011;50538;53.482;10.294;2023-04-06T23:59:16;6.38;;;2.50;;
